Terminal Aerodrome Forecast
Issued by NWS

Current Version | Previous Version | Text Only | Print | Product List | Glossary On
Versions: 1 2 3 4 5 6 7 8 9 10 11 12 13 14 15 16 17 18 19 20 21 22 23 24 25 26
000
FTUS42 KCAE 302217 AAC
TAFOGB
TAF AMD
KOGB 302217Z 3022/3118 12009KT P6SM VCSH BKN050 BKN080
      TEMPO 3022/3023 VRB15G30KT 5SM -SHRA BR SCT010 BKN030 OVC070
     FM310600 17006KT P6SM VCSH OVC008
     FM310900 19008KT 4SM -SHRA BR OVC004
     FM311400 24012G20KT P6SM OVC050=

USA.gov is the U.S. government's official web portal to all federal, state and local government web resources and services.